sensor_id;sensor_type;location;lat;lon;timestamp;P1;durP1;ratioP1;P2;durP2;ratioP2
18983;SDS011;9626;52.552;13.436;2023-05-14T00:00:41;10.10;;;8.60;;
18983;SDS011;9626;52.552;13.436;2023-05-14T00:03:07;10.27;;;7.93;;
18983;SDS011;9626;52.552;13.436;2023-05-14T00:05:33;10.57;;;8.37;;
18983;SDS011;9626;52.552;13.436;2023-05-14T00:07:59;10.33;;;8.80;;
18983;SDS011;9626;52.552;13.436;2023-05-14T00:10:26;10.43;;;8.80;;
18983;SDS011;9626;52.552;13.436;2023-05-14T00:12:52;13.40;;;9.03;;
18983;SDS011;9626;52.552;13.436;2023-05-14T00:15:18;12.90;;;9.97;;
18983;SDS011;9626;52.552;13.436;2023-05-14T00:17:44;10.53;;;8.80;;
18983;SDS011;9626;52.552;13.436;2023-05-14T00:20:10;11.63;;;8.47;;
18983;SDS011;9626;52.552;13.436;2023-05-14T00:22:37;17.07;;;8.70;;
18983;SDS011;9626;52.552;13.436;2023-05-14T00:25:05;10.00;;;8.40;;
18983;SDS011;9626;52.552;13.436;2023-05-14T00:27:31;10.20;;;8.60;;
18983;SDS011;9626;52.552;13.436;2023-05-14T00:29:58;13.77;;;8.93;;
18983;SDS011;9626;52.552;13.436;2023-05-14T00:32:24;9.17;;;8.27;;
18983;SDS011;9626;52.552;13.436;2023-05-14T00:34:50;10.73;;;8.40;;
18983;SDS011;9626;52.552;13.436;2023-05-14T00:37:16;13.23;;;8.27;;
18983;SDS011;9626;52.552;13.436;2023-05-14T00:39:42;12.50;;;8.40;;
18983;SDS011;9626;52.552;13.436;2023-05-14T00:42:08;12.57;;;8.07;;
18983;SDS011;9626;52.552;13.436;2023-05-14T00:44:34;9.40;;;7.93;;
18983;SDS011;9626;52.552;13.436;2023-05-14T00:47:00;9.47;;;7.47;;
18983;SDS011;9626;52.552;13.436;2023-05-14T00:49:26;8.83;;;7.33;;
18983;SDS011;9626;52.552;13.436;2023-05-14T00:51:53;9.77;;;7.57;;
18983;SDS011;9626;52.552;13.436;2023-05-14T00:54:19;8.37;;;7.00;;
18983;SDS011;9626;52.552;13.436;2023-05-14T00:56:45;9.33;;;6.83;;
18983;SDS011;9626;52.552;13.436;2023-05-14T00:59:12;7.70;;;6.20;;
18983;SDS011;9626;52.552;13.436;2023-05-14T01:01:38;13.30;;;7.17;;
18983;SDS011;9626;52.552;13.436;2023-05-14T01:04:05;10.87;;;6.23;;
18983;SDS011;9626;52.552;13.436;2023-05-14T01:09:43;8.80;;;6.20;;
18983;SDS011;9626;52.552;13.436;2023-05-14T01:15:08;8.23;;;6.17;;
18983;SDS011;9626;52.552;13.436;2023-05-14T01:17:46;7.77;;;5.63;;
18983;SDS011;9626;52.552;13.436;2023-05-14T01:20:16;8.43;;;6.07;;
18983;SDS011;9626;52.552;13.436;2023-05-14T01:22:42;9.60;;;6.47;;
18983;SDS011;9626;52.552;13.436;2023-05-14T01:25:08;6.83;;;6.10;;
18983;SDS011;9626;52.552;13.436;2023-05-14T01:32:59;9.20;;;5.80;;
18983;SDS011;9626;52.552;13.436;2023-05-14T01:35:29;8.00;;;6.23;;
18983;SDS011;9626;52.552;13.436;2023-05-14T01:37:55;7.90;;;6.47;;
18983;SDS011;9626;52.552;13.436;2023-05-14T01:40:24;8.47;;;6.80;;
18983;SDS011;9626;52.552;13.436;2023-05-14T01:42:50;8.47;;;7.10;;
18983;SDS011;9626;52.552;13.436;2023-05-14T01:45:20;7.80;;;6.90;;
18983;SDS011;9626;52.552;13.436;2023-05-14T01:47:49;9.87;;;6.47;;
18983;SDS011;9626;52.552;13.436;2023-05-14T01:50:16;8.07;;;7.23;;
18983;SDS011;9626;52.552;13.436;2023-05-14T01:52:42;8.17;;;6.50;;
18983;SDS011;9626;52.552;13.436;2023-05-14T01:55:08;8.10;;;6.50;;
18983;SDS011;9626;52.552;13.436;2023-05-14T01:57:35;10.60;;;6.37;;
18983;SDS011;9626;52.552;13.436;2023-05-14T02:00:01;9.63;;;7.00;;
18983;SDS011;9626;52.552;13.436;2023-05-14T02:02:28;9.30;;;7.30;;
18983;SDS011;9626;52.552;13.436;2023-05-14T02:04:54;7.87;;;6.13;;
18983;SDS011;9626;52.552;13.436;2023-05-14T02:07:20;9.70;;;6.63;;
18983;SDS011;9626;52.552;13.436;2023-05-14T02:09:46;9.63;;;6.20;;
18983;SDS011;9626;52.552;13.436;2023-05-14T02:12:12;9.13;;;6.63;;
18983;SDS011;9626;52.552;13.436;2023-05-14T02:14:38;10.03;;;6.73;;
18983;SDS011;9626;52.552;13.436;2023-05-14T02:17:04;7.10;;;6.40;;
18983;SDS011;9626;52.552;13.436;2023-05-14T02:19:30;9.77;;;6.50;;
18983;SDS011;9626;52.552;13.436;2023-05-14T02:21:57;7.80;;;6.37;;
18983;SDS011;9626;52.552;13.436;2023-05-14T02:24:24;7.50;;;6.13;;
18983;SDS011;9626;52.552;13.436;2023-05-14T02:26:50;9.37;;;6.70;;
18983;SDS011;9626;52.552;13.436;2023-05-14T02:29:16;6.57;;;5.93;;
18983;SDS011;9626;52.552;13.436;2023-05-14T02:31:42;9.93;;;6.10;;
18983;SDS011;9626;52.552;13.436;2023-05-14T02:34:08;8.60;;;5.57;;
18983;SDS011;9626;52.552;13.436;2023-05-14T02:36:35;6.83;;;5.60;;
18983;SDS011;9626;52.552;13.436;2023-05-14T02:39:00;8.07;;;5.60;;
18983;SDS011;9626;52.552;13.436;2023-05-14T02:41:26;7.47;;;4.93;;
18983;SDS011;9626;52.552;13.436;2023-05-14T02:43:52;6.63;;;5.33;;
18983;SDS011;9626;52.552;13.436;2023-05-14T02:46:19;6.53;;;5.17;;
18983;SDS011;9626;52.552;13.436;2023-05-14T02:48:45;6.20;;;5.47;;
18983;SDS011;9626;52.552;13.436;2023-05-14T02:51:11;5.33;;;4.70;;
18983;SDS011;9626;52.552;13.436;2023-05-14T02:53:37;10.83;;;5.50;;
18983;SDS011;9626;52.552;13.436;2023-05-14T02:56:03;7.40;;;5.17;;
18983;SDS011;9626;52.552;13.436;2023-05-14T02:58:29;7.23;;;5.33;;
18983;SDS011;9626;52.552;13.436;2023-05-14T03:00:55;8.90;;;5.70;;
18983;SDS011;9626;52.552;13.436;2023-05-14T03:03:21;7.73;;;5.13;;
18983;SDS011;9626;52.552;13.436;2023-05-14T03:05:47;6.63;;;4.93;;
18983;SDS011;9626;52.552;13.436;2023-05-14T03:08:13;9.13;;;6.03;;
18983;SDS011;9626;52.552;13.436;2023-05-14T03:10:40;7.37;;;5.90;;
18983;SDS011;9626;52.552;13.436;2023-05-14T03:13:06;7.43;;;6.47;;
18983;SDS011;9626;52.552;13.436;2023-05-14T03:15:32;8.90;;;5.90;;
18983;SDS011;9626;52.552;13.436;2023-05-14T03:17:58;13.07;;;5.83;;
18983;SDS011;9626;52.552;13.436;2023-05-14T03:20:25;6.30;;;5.30;;
18983;SDS011;9626;52.552;13.436;2023-05-14T03:22:51;6.07;;;5.47;;
18983;SDS011;9626;52.552;13.436;2023-05-14T03:25:17;8.13;;;5.80;;
18983;SDS011;9626;52.552;13.436;2023-05-14T03:27:43;9.37;;;5.33;;
18983;SDS011;9626;52.552;13.436;2023-05-14T03:30:10;9.30;;;6.40;;
18983;SDS011;9626;52.552;13.436;2023-05-14T03:32:36;6.50;;;4.80;;
18983;SDS011;9626;52.552;13.436;2023-05-14T03:35:02;6.47;;;5.77;;
18983;SDS011;9626;52.552;13.436;2023-05-14T03:37:28;7.33;;;5.00;;
18983;SDS011;9626;52.552;13.436;2023-05-14T03:39:54;6.83;;;5.27;;
18983;SDS011;9626;52.552;13.436;2023-05-14T03:42:20;7.13;;;5.27;;
18983;SDS011;9626;52.552;13.436;2023-05-14T03:44:46;10.60;;;5.33;;
18983;SDS011;9626;52.552;13.436;2023-05-14T03:47:12;8.07;;;5.07;;
18983;SDS011;9626;52.552;13.436;2023-05-14T03:49:38;6.83;;;5.20;;
18983;SDS011;9626;52.552;13.436;2023-05-14T03:52:04;5.77;;;4.93;;
18983;SDS011;9626;52.552;13.436;2023-05-14T03:54:30;7.53;;;4.80;;
18983;SDS011;9626;52.552;13.436;2023-05-14T03:56:56;5.93;;;5.10;;
18983;SDS011;9626;52.552;13.436;2023-05-14T03:59:22;6.73;;;4.90;;
18983;SDS011;9626;52.552;13.436;2023-05-14T04:01:48;7.77;;;4.73;;
18983;SDS011;9626;52.552;13.436;2023-05-14T04:04:14;5.67;;;5.07;;
18983;SDS011;9626;52.552;13.436;2023-05-14T04:06:40;8.47;;;4.80;;
18983;SDS011;9626;52.552;13.436;2023-05-14T04:09:06;6.50;;;4.50;;
18983;SDS011;9626;52.552;13.436;2023-05-14T04:11:32;6.13;;;5.07;;
18983;SDS011;9626;52.552;13.436;2023-05-14T04:13:58;7.07;;;4.80;;
18983;SDS011;9626;52.552;13.436;2023-05-14T04:16:24;9.33;;;6.97;;
18983;SDS011;9626;52.552;13.436;2023-05-14T04:18:50;11.70;;;6.13;;
18983;SDS011;9626;52.552;13.436;2023-05-14T04:21:16;9.23;;;5.77;;
18983;SDS011;9626;52.552;13.436;2023-05-14T04:23:42;10.40;;;5.20;;
18983;SDS011;9626;52.552;13.436;2023-05-14T04:26:08;6.97;;;4.30;;
18983;SDS011;9626;52.552;13.436;2023-05-14T04:28:34;6.57;;;5.00;;
18983;SDS011;9626;52.552;13.436;2023-05-14T04:31:00;8.60;;;5.30;;
18983;SDS011;9626;52.552;13.436;2023-05-14T04:33:26;7.63;;;4.90;;
18983;SDS011;9626;52.552;13.436;2023-05-14T04:35:52;7.53;;;4.73;;
18983;SDS011;9626;52.552;13.436;2023-05-14T04:38:18;11.00;;;4.97;;
18983;SDS011;9626;52.552;13.436;2023-05-14T04:40:44;8.53;;;4.47;;
18983;SDS011;9626;52.552;13.436;2023-05-14T04:43:10;10.33;;;4.90;;
18983;SDS011;9626;52.552;13.436;2023-05-14T04:45:36;10.07;;;4.83;;
18983;SDS011;9626;52.552;13.436;2023-05-14T04:48:03;7.00;;;4.67;;
18983;SDS011;9626;52.552;13.436;2023-05-14T04:50:29;8.90;;;4.90;;
18983;SDS011;9626;52.552;13.436;2023-05-14T04:52:55;7.80;;;5.17;;
18983;SDS011;9626;52.552;13.436;2023-05-14T04:55:21;10.63;;;5.23;;
18983;SDS011;9626;52.552;13.436;2023-05-14T04:57:47;6.97;;;4.77;;
18983;SDS011;9626;52.552;13.436;2023-05-14T05:00:14;7.37;;;4.80;;
18983;SDS011;9626;52.552;13.436;2023-05-14T05:02:42;10.20;;;5.10;;
18983;SDS011;9626;52.552;13.436;2023-05-14T05:05:08;7.63;;;4.60;;
18983;SDS011;9626;52.552;13.436;2023-05-14T05:07:34;11.13;;;4.97;;
18983;SDS011;9626;52.552;13.436;2023-05-14T05:10:00;8.27;;;4.53;;
18983;SDS011;9626;52.552;13.436;2023-05-14T05:12:27;7.40;;;4.83;;
18983;SDS011;9626;52.552;13.436;2023-05-14T05:14:57;11.23;;;5.77;;
18983;SDS011;9626;52.552;13.436;2023-05-14T05:17:23;6.87;;;5.03;;
18983;SDS011;9626;52.552;13.436;2023-05-14T05:19:50;9.17;;;5.20;;
18983;SDS011;9626;52.552;13.436;2023-05-14T05:22:16;6.97;;;5.13;;
18983;SDS011;9626;52.552;13.436;2023-05-14T05:24:42;6.30;;;5.00;;
18983;SDS011;9626;52.552;13.436;2023-05-14T05:27:08;7.70;;;4.93;;
18983;SDS011;9626;52.552;13.436;2023-05-14T05:29:34;8.23;;;4.67;;
18983;SDS011;9626;52.552;13.436;2023-05-14T05:32:00;8.80;;;4.60;;
18983;SDS011;9626;52.552;13.436;2023-05-14T05:34:26;8.57;;;4.30;;
18983;SDS011;9626;52.552;13.436;2023-05-14T05:36:52;7.13;;;4.73;;
18983;SDS011;9626;52.552;13.436;2023-05-14T05:39:18;6.80;;;4.57;;
18983;SDS011;9626;52.552;13.436;2023-05-14T05:41:44;7.40;;;5.07;;
18983;SDS011;9626;52.552;13.436;2023-05-14T05:44:10;9.33;;;4.40;;
18983;SDS011;9626;52.552;13.436;2023-05-14T05:46:36;8.00;;;4.80;;
18983;SDS011;9626;52.552;13.436;2023-05-14T05:49:02;6.87;;;5.30;;
18983;SDS011;9626;52.552;13.436;2023-05-14T05:51:28;31.70;;;21.97;;
18983;SDS011;9626;52.552;13.436;2023-05-14T05:53:54;34.40;;;25.97;;
18983;SDS011;9626;52.552;13.436;2023-05-14T05:56:20;12.03;;;9.57;;
18983;SDS011;9626;52.552;13.436;2023-05-14T05:58:46;9.07;;;6.13;;
18983;SDS011;9626;52.552;13.436;2023-05-14T06:01:12;8.80;;;4.90;;
18983;SDS011;9626;52.552;13.436;2023-05-14T06:03:38;7.27;;;5.00;;
18983;SDS011;9626;52.552;13.436;2023-05-14T06:06:04;8.20;;;4.40;;
18983;SDS011;9626;52.552;13.436;2023-05-14T06:08:31;7.87;;;3.90;;
18983;SDS011;9626;52.552;13.436;2023-05-14T06:10:57;7.40;;;4.40;;
18983;SDS011;9626;52.552;13.436;2023-05-14T06:13:23;10.93;;;4.30;;
18983;SDS011;9626;52.552;13.436;2023-05-14T06:15:49;6.03;;;4.40;;
18983;SDS011;9626;52.552;13.436;2023-05-14T06:18:15;6.20;;;4.17;;
18983;SDS011;9626;52.552;13.436;2023-05-14T06:20:41;7.83;;;4.13;;
18983;SDS011;9626;52.552;13.436;2023-05-14T06:23:07;6.03;;;4.43;;
18983;SDS011;9626;52.552;13.436;2023-05-14T06:25:33;7.17;;;4.20;;
18983;SDS011;9626;52.552;13.436;2023-05-14T06:27:59;6.30;;;4.50;;
18983;SDS011;9626;52.552;13.436;2023-05-14T06:30:25;8.17;;;4.33;;
18983;SDS011;9626;52.552;13.436;2023-05-14T06:32:51;8.50;;;4.63;;
18983;SDS011;9626;52.552;13.436;2023-05-14T06:35:17;7.67;;;4.70;;
18983;SDS011;9626;52.552;13.436;2023-05-14T06:37:44;9.47;;;4.50;;
18983;SDS011;9626;52.552;13.436;2023-05-14T06:40:10;8.20;;;5.27;;
18983;SDS011;9626;52.552;13.436;2023-05-14T06:42:37;9.73;;;4.37;;
18983;SDS011;9626;52.552;13.436;2023-05-14T06:45:03;6.67;;;4.40;;
18983;SDS011;9626;52.552;13.436;2023-05-14T06:47:30;7.13;;;4.03;;
18983;SDS011;9626;52.552;13.436;2023-05-14T06:49:56;6.17;;;3.80;;
18983;SDS011;9626;52.552;13.436;2023-05-14T06:52:23;4.90;;;3.97;;
18983;SDS011;9626;52.552;13.436;2023-05-14T06:54:51;7.87;;;4.17;;
18983;SDS011;9626;52.552;13.436;2023-05-14T06:57:17;8.80;;;4.63;;
18983;SDS011;9626;52.552;13.436;2023-05-14T06:59:43;6.77;;;4.37;;
18983;SDS011;9626;52.552;13.436;2023-05-14T07:02:09;7.27;;;4.10;;
18983;SDS011;9626;52.552;13.436;2023-05-14T07:04:35;9.80;;;4.37;;
18983;SDS011;9626;52.552;13.436;2023-05-14T07:07:01;5.80;;;3.80;;
18983;SDS011;9626;52.552;13.436;2023-05-14T07:09:28;6.40;;;4.10;;
18983;SDS011;9626;52.552;13.436;2023-05-14T07:11:56;6.00;;;4.70;;
18983;SDS011;9626;52.552;13.436;2023-05-14T07:14:22;9.80;;;3.83;;
18983;SDS011;9626;52.552;13.436;2023-05-14T07:16:48;7.03;;;4.00;;
18983;SDS011;9626;52.552;13.436;2023-05-14T07:19:14;6.93;;;4.07;;
18983;SDS011;9626;52.552;13.436;2023-05-14T07:21:40;7.17;;;4.37;;
18983;SDS011;9626;52.552;13.436;2023-05-14T07:24:06;6.03;;;3.93;;
18983;SDS011;9626;52.552;13.436;2023-05-14T07:26:33;6.77;;;3.37;;
18983;SDS011;9626;52.552;13.436;2023-05-14T07:28:59;8.00;;;3.97;;
18983;SDS011;9626;52.552;13.436;2023-05-14T07:31:25;6.47;;;4.10;;
18983;SDS011;9626;52.552;13.436;2023-05-14T07:33:51;4.73;;;3.80;;
18983;SDS011;9626;52.552;13.436;2023-05-14T07:36:17;13.93;;;3.33;;
18983;SDS011;9626;52.552;13.436;2023-05-14T07:38:43;5.10;;;3.57;;
18983;SDS011;9626;52.552;13.436;2023-05-14T07:41:09;5.70;;;3.60;;
18983;SDS011;9626;52.552;13.436;2023-05-14T07:43:36;9.57;;;3.60;;
18983;SDS011;9626;52.552;13.436;2023-05-14T07:46:03;7.07;;;3.60;;
18983;SDS011;9626;52.552;13.436;2023-05-14T07:48:29;8.53;;;3.67;;
18983;SDS011;9626;52.552;13.436;2023-05-14T07:50:55;4.87;;;3.30;;
18983;SDS011;9626;52.552;13.436;2023-05-14T07:53:21;6.80;;;3.33;;
18983;SDS011;9626;52.552;13.436;2023-05-14T07:55:48;3.60;;;3.20;;
18983;SDS011;9626;52.552;13.436;2023-05-14T07:58:15;6.53;;;3.33;;
18983;SDS011;9626;52.552;13.436;2023-05-14T08:00:41;6.50;;;3.47;;
18983;SDS011;9626;52.552;13.436;2023-05-14T08:03:07;4.93;;;2.93;;
18983;SDS011;9626;52.552;13.436;2023-05-14T08:05:34;4.50;;;3.33;;
18983;SDS011;9626;52.552;13.436;2023-05-14T08:08:00;4.00;;;2.93;;
18983;SDS011;9626;52.552;13.436;2023-05-14T08:10:27;6.00;;;3.27;;
18983;SDS011;9626;52.552;13.436;2023-05-14T08:12:54;6.23;;;3.03;;
18983;SDS011;9626;52.552;13.436;2023-05-14T08:15:20;3.90;;;3.07;;
18983;SDS011;9626;52.552;13.436;2023-05-14T08:17:46;7.47;;;3.27;;
18983;SDS011;9626;52.552;13.436;2023-05-14T08:20:12;6.07;;;3.43;;
18983;SDS011;9626;52.552;13.436;2023-05-14T08:22:38;7.23;;;3.53;;
18983;SDS011;9626;52.552;13.436;2023-05-14T08:25:04;4.70;;;2.87;;
18983;SDS011;9626;52.552;13.436;2023-05-14T08:27:31;5.97;;;2.97;;
18983;SDS011;9626;52.552;13.436;2023-05-14T08:29:57;4.23;;;3.10;;
18983;SDS011;9626;52.552;13.436;2023-05-14T08:32:23;4.60;;;3.00;;
18983;SDS011;9626;52.552;13.436;2023-05-14T08:34:49;6.83;;;3.07;;
18983;SDS011;9626;52.552;13.436;2023-05-14T08:37:16;5.13;;;3.23;;
18983;SDS011;9626;52.552;13.436;2023-05-14T08:39:42;6.87;;;3.10;;
18983;SDS011;9626;52.552;13.436;2023-05-14T08:42:08;7.83;;;3.10;;
18983;SDS011;9626;52.552;13.436;2023-05-14T08:44:47;8.50;;;3.23;;
18983;SDS011;9626;52.552;13.436;2023-05-14T08:47:17;5.00;;;2.90;;
18983;SDS011;9626;52.552;13.436;2023-05-14T08:49:46;5.90;;;3.23;;
18983;SDS011;9626;52.552;13.436;2023-05-14T08:52:17;6.80;;;3.60;;
18983;SDS011;9626;52.552;13.436;2023-05-14T08:54:46;3.37;;;2.90;;
18983;SDS011;9626;52.552;13.436;2023-05-14T08:57:14;3.03;;;2.70;;
18983;SDS011;9626;52.552;13.436;2023-05-14T08:59:41;3.33;;;2.83;;
18983;SDS011;9626;52.552;13.436;2023-05-14T09:02:08;5.17;;;2.90;;
18983;SDS011;9626;52.552;13.436;2023-05-14T09:04:36;3.77;;;3.10;;
18983;SDS011;9626;52.552;13.436;2023-05-14T09:07:03;6.33;;;3.03;;
18983;SDS011;9626;52.552;13.436;2023-05-14T09:09:29;4.87;;;2.93;;
18983;SDS011;9626;52.552;13.436;2023-05-14T09:11:58;4.00;;;3.10;;
18983;SDS011;9626;52.552;13.436;2023-05-14T09:14:25;4.77;;;3.20;;
18983;SDS011;9626;52.552;13.436;2023-05-14T09:16:51;5.90;;;3.30;;
18983;SDS011;9626;52.552;13.436;2023-05-14T09:19:19;5.10;;;2.97;;
18983;SDS011;9626;52.552;13.436;2023-05-14T09:21:45;3.60;;;2.90;;
18983;SDS011;9626;52.552;13.436;2023-05-14T09:24:19;6.20;;;2.97;;
18983;SDS011;9626;52.552;13.436;2023-05-14T09:26:48;12.47;;;2.83;;
18983;SDS011;9626;52.552;13.436;2023-05-14T09:29:16;4.15;;;2.55;;
18983;SDS011;9626;52.552;13.436;2023-05-14T09:31:42;3.97;;;2.45;;
18983;SDS011;9626;52.552;13.436;2023-05-14T09:34:08;5.50;;;2.63;;
18983;SDS011;9626;52.552;13.436;2023-05-14T09:36:34;4.15;;;3.05;;
18983;SDS011;9626;52.552;13.436;2023-05-14T09:39:02;3.10;;;2.67;;
18983;SDS011;9626;52.552;13.436;2023-05-14T09:41:34;9.75;;;3.05;;
18983;SDS011;9626;52.552;13.436;2023-05-14T09:44:00;3.92;;;2.85;;
18983;SDS011;9626;52.552;13.436;2023-05-14T09:46:26;3.90;;;2.55;;
18983;SDS011;9626;52.552;13.436;2023-05-14T09:48:57;3.88;;;2.78;;
18983;SDS011;9626;52.552;13.436;2023-05-14T09:51:28;3.30;;;2.50;;
18983;SDS011;9626;52.552;13.436;2023-05-14T09:53:56;3.92;;;2.47;;
18983;SDS011;9626;52.552;13.436;2023-05-14T09:56:22;4.55;;;2.47;;
18983;SDS011;9626;52.552;13.436;2023-05-14T09:58:48;3.50;;;2.72;;
18983;SDS011;9626;52.552;13.436;2023-05-14T10:01:15;4.35;;;2.38;;
18983;SDS011;9626;52.552;13.436;2023-05-14T10:03:44;8.77;;;2.42;;
18983;SDS011;9626;52.552;13.436;2023-05-14T10:06:10;6.00;;;2.60;;
18983;SDS011;9626;52.552;13.436;2023-05-14T10:08:42;4.20;;;2.83;;
18983;SDS011;9626;52.552;13.436;2023-05-14T10:11:14;3.72;;;2.60;;
18983;SDS011;9626;52.552;13.436;2023-05-14T10:13:48;13.82;;;3.65;;
18983;SDS011;9626;52.552;13.436;2023-05-14T10:16:33;4.70;;;2.78;;
18983;SDS011;9626;52.552;13.436;2023-05-14T10:19:09;9.00;;;5.25;;
18983;SDS011;9626;52.552;13.436;2023-05-14T10:21:37;4.72;;;2.50;;
18983;SDS011;9626;52.552;13.436;2023-05-14T10:24:08;5.03;;;2.33;;
18983;SDS011;9626;52.552;13.436;2023-05-14T10:26:36;3.08;;;2.60;;
18983;SDS011;9626;52.552;13.436;2023-05-14T10:29:04;4.95;;;2.53;;
18983;SDS011;9626;52.552;13.436;2023-05-14T10:37:07;9.73;;;3.13;;
18983;SDS011;9626;52.552;13.436;2023-05-14T10:42:19;7.53;;;3.05;;
18983;SDS011;9626;52.552;13.436;2023-05-14T10:44:51;5.20;;;2.72;;
18983;SDS011;9626;52.552;13.436;2023-05-14T10:47:20;5.22;;;2.42;;
18983;SDS011;9626;52.552;13.436;2023-05-14T10:49:47;6.45;;;2.63;;
18983;SDS011;9626;52.552;13.436;2023-05-14T10:52:17;3.40;;;2.72;;
18983;SDS011;9626;52.552;13.436;2023-05-14T10:54:53;8.50;;;3.08;;
18983;SDS011;9626;52.552;13.436;2023-05-14T10:57:21;5.03;;;2.97;;
18983;SDS011;9626;52.552;13.436;2023-05-14T10:59:51;8.70;;;2.80;;
18983;SDS011;9626;52.552;13.436;2023-05-14T11:02:23;5.10;;;2.72;;
18983;SDS011;9626;52.552;13.436;2023-05-14T11:05:03;3.92;;;2.83;;
18983;SDS011;9626;52.552;13.436;2023-05-14T11:07:34;6.22;;;2.78;;
18983;SDS011;9626;52.552;13.436;2023-05-14T11:10:03;4.65;;;3.20;;
18983;SDS011;9626;52.552;13.436;2023-05-14T11:12:29;5.95;;;2.97;;
18983;SDS011;9626;52.552;13.436;2023-05-14T11:14:56;10.07;;;3.03;;
18983;SDS011;9626;52.552;13.436;2023-05-14T11:17:27;5.18;;;3.00;;
18983;SDS011;9626;52.552;13.436;2023-05-14T11:19:54;5.10;;;2.80;;
18983;SDS011;9626;52.552;13.436;2023-05-14T11:22:21;4.80;;;2.90;;
18983;SDS011;9626;52.552;13.436;2023-05-14T11:24:47;5.87;;;2.90;;
18983;SDS011;9626;52.552;13.436;2023-05-14T11:27:14;5.23;;;3.23;;
18983;SDS011;9626;52.552;13.436;2023-05-14T11:29:42;7.27;;;3.20;;
18983;SDS011;9626;52.552;13.436;2023-05-14T11:32:13;7.83;;;2.97;;
18983;SDS011;9626;52.552;13.436;2023-05-14T11:34:40;4.13;;;2.60;;
18983;SDS011;9626;52.552;13.436;2023-05-14T11:37:13;8.35;;;3.17;;
18983;SDS011;9626;52.552;13.436;2023-05-14T11:39:47;6.68;;;2.90;;
18983;SDS011;9626;52.552;13.436;2023-05-14T11:42:14;5.55;;;2.92;;
18983;SDS011;9626;52.552;13.436;2023-05-14T11:44:46;4.65;;;3.35;;
18983;SDS011;9626;52.552;13.436;2023-05-14T11:47:14;6.07;;;3.90;;
18983;SDS011;9626;52.552;13.436;2023-05-14T11:49:41;6.15;;;3.20;;
18983;SDS011;9626;52.552;13.436;2023-05-14T11:52:08;3.67;;;3.33;;
18983;SDS011;9626;52.552;13.436;2023-05-14T11:54:36;5.70;;;3.00;;
18983;SDS011;9626;52.552;13.436;2023-05-14T11:57:15;6.82;;;3.25;;
18983;SDS011;9626;52.552;13.436;2023-05-14T11:59:46;3.70;;;3.27;;
18983;SDS011;9626;52.552;13.436;2023-05-14T12:02:14;5.72;;;3.20;;
18983;SDS011;9626;52.552;13.436;2023-05-14T12:04:42;3.30;;;3.00;;
18983;SDS011;9626;52.552;13.436;2023-05-14T12:07:10;6.57;;;3.33;;
18983;SDS011;9626;52.552;13.436;2023-05-14T12:09:41;6.50;;;3.47;;
18983;SDS011;9626;52.552;13.436;2023-05-14T12:12:14;5.22;;;3.17;;
18983;SDS011;9626;52.552;13.436;2023-05-14T12:14:48;6.57;;;3.80;;
18983;SDS011;9626;52.552;13.436;2023-05-14T12:17:16;5.07;;;3.10;;
18983;SDS011;9626;52.552;13.436;2023-05-14T12:19:44;5.07;;;2.70;;
18983;SDS011;9626;52.552;13.436;2023-05-14T12:22:11;4.50;;;3.20;;
18983;SDS011;9626;52.552;13.436;2023-05-14T12:24:40;5.25;;;3.55;;
18983;SDS011;9626;52.552;13.436;2023-05-14T12:27:08;3.53;;;3.22;;
18983;SDS011;9626;52.552;13.436;2023-05-14T12:29:35;6.82;;;3.25;;
18983;SDS011;9626;52.552;13.436;2023-05-14T12:32:06;3.75;;;3.35;;
18983;SDS011;9626;52.552;13.436;2023-05-14T12:34:34;4.63;;;3.38;;
18983;SDS011;9626;52.552;13.436;2023-05-14T12:37:01;3.88;;;3.22;;
18983;SDS011;9626;52.552;13.436;2023-05-14T12:39:27;7.65;;;4.00;;
18983;SDS011;9626;52.552;13.436;2023-05-14T12:41:53;4.22;;;2.90;;
18983;SDS011;9626;52.552;13.436;2023-05-14T12:44:19;5.55;;;2.85;;
18983;SDS011;9626;52.552;13.436;2023-05-14T12:46:48;6.38;;;2.95;;
18983;SDS011;9626;52.552;13.436;2023-05-14T12:49:14;6.65;;;3.53;;
18983;SDS011;9626;52.552;13.436;2023-05-14T12:51:41;3.10;;;2.80;;
18983;SDS011;9626;52.552;13.436;2023-05-14T12:54:07;7.72;;;3.10;;
18983;SDS011;9626;52.552;13.436;2023-05-14T12:56:36;8.13;;;3.00;;
18983;SDS011;9626;52.552;13.436;2023-05-14T12:59:03;6.93;;;3.45;;
18983;SDS011;9626;52.552;13.436;2023-05-14T13:01:29;7.65;;;2.92;;
18983;SDS011;9626;52.552;13.436;2023-05-14T13:03:55;8.35;;;3.10;;
18983;SDS011;9626;52.552;13.436;2023-05-14T13:06:22;3.85;;;3.10;;
18983;SDS011;9626;52.552;13.436;2023-05-14T13:08:49;2.80;;;2.47;;
18983;SDS011;9626;52.552;13.436;2023-05-14T13:11:15;4.03;;;2.72;;
18983;SDS011;9626;52.552;13.436;2023-05-14T13:13:41;4.57;;;2.80;;
18983;SDS011;9626;52.552;13.436;2023-05-14T13:16:07;10.02;;;2.97;;
18983;SDS011;9626;52.552;13.436;2023-05-14T13:18:33;3.72;;;2.38;;
18983;SDS011;9626;52.552;13.436;2023-05-14T13:21:02;6.55;;;3.35;;
18983;SDS011;9626;52.552;13.436;2023-05-14T13:23:30;3.45;;;3.00;;
18983;SDS011;9626;52.552;13.436;2023-05-14T13:25:56;6.50;;;2.80;;
18983;SDS011;9626;52.552;13.436;2023-05-14T13:28:22;4.32;;;2.97;;
18983;SDS011;9626;52.552;13.436;2023-05-14T13:33:34;9.63;;;3.17;;
18983;SDS011;9626;52.552;13.436;2023-05-14T13:36:01;5.38;;;3.03;;
18983;SDS011;9626;52.552;13.436;2023-05-14T13:38:28;4.32;;;3.17;;
18983;SDS011;9626;52.552;13.436;2023-05-14T13:40:54;7.75;;;3.00;;
18983;SDS011;9626;52.552;13.436;2023-05-14T13:43:22;4.30;;;3.65;;
18983;SDS011;9626;52.552;13.436;2023-05-14T13:45:48;5.00;;;2.97;;
18983;SDS011;9626;52.552;13.436;2023-05-14T13:48:15;3.67;;;2.90;;
18983;SDS011;9626;52.552;13.436;2023-05-14T13:50:41;6.57;;;3.83;;
18983;SDS011;9626;52.552;13.436;2023-05-14T13:53:07;6.60;;;3.13;;
18983;SDS011;9626;52.552;13.436;2023-05-14T13:55:34;7.82;;;2.92;;
18983;SDS011;9626;52.552;13.436;2023-05-14T13:58:00;4.30;;;3.50;;
18983;SDS011;9626;52.552;13.436;2023-05-14T14:00:27;4.53;;;2.50;;
18983;SDS011;9626;52.552;13.436;2023-05-14T14:02:53;7.25;;;3.10;;
18983;SDS011;9626;52.552;13.436;2023-05-14T14:05:19;8.98;;;4.80;;
18983;SDS011;9626;52.552;13.436;2023-05-14T14:07:45;4.50;;;2.80;;
18983;SDS011;9626;52.552;13.436;2023-05-14T14:10:11;6.72;;;2.58;;
18983;SDS011;9626;52.552;13.436;2023-05-14T14:12:37;5.13;;;3.28;;
18983;SDS011;9626;52.552;13.436;2023-05-14T14:15:04;5.80;;;2.78;;
18983;SDS011;9626;52.552;13.436;2023-05-14T14:17:31;7.60;;;3.25;;
18983;SDS011;9626;52.552;13.436;2023-05-14T14:19:59;8.60;;;3.65;;
18983;SDS011;9626;52.552;13.436;2023-05-14T14:22:25;5.65;;;3.15;;
18983;SDS011;9626;52.552;13.436;2023-05-14T14:24:51;8.95;;;5.22;;
18983;SDS011;9626;52.552;13.436;2023-05-14T14:27:19;5.05;;;2.50;;
18983;SDS011;9626;52.552;13.436;2023-05-14T14:29:45;3.80;;;2.70;;
18983;SDS011;9626;52.552;13.436;2023-05-14T14:32:11;7.43;;;2.45;;
18983;SDS011;9626;52.552;13.436;2023-05-14T14:34:37;7.05;;;2.90;;
18983;SDS011;9626;52.552;13.436;2023-05-14T14:37:03;3.10;;;2.40;;
18983;SDS011;9626;52.552;13.436;2023-05-14T14:39:29;3.20;;;2.47;;
18983;SDS011;9626;52.552;13.436;2023-05-14T14:41:55;5.35;;;2.50;;
18983;SDS011;9626;52.552;13.436;2023-05-14T14:44:21;5.75;;;2.80;;
18983;SDS011;9626;52.552;13.436;2023-05-14T14:46:47;5.53;;;3.08;;
18983;SDS011;9626;52.552;13.436;2023-05-14T14:49:13;3.47;;;2.47;;
18983;SDS011;9626;52.552;13.436;2023-05-14T14:51:39;5.82;;;2.97;;
18983;SDS011;9626;52.552;13.436;2023-05-14T14:54:05;3.15;;;2.85;;
18983;SDS011;9626;52.552;13.436;2023-05-14T14:56:32;4.07;;;3.03;;
18983;SDS011;9626;52.552;13.436;2023-05-14T14:58:58;6.28;;;3.42;;
18983;SDS011;9626;52.552;13.436;2023-05-14T15:01:24;6.80;;;2.83;;
18983;SDS011;9626;52.552;13.436;2023-05-14T15:03:50;10.70;;;5.45;;
18983;SDS011;9626;52.552;13.436;2023-05-14T15:06:20;7.93;;;3.60;;